sensor_id;sensor_type;location;lat;lon;timestamp;temperature;humidity
81366;DHT22;70822;51.990;22.766;2023-07-13T00:12:28;20.70;81.20
81366;DHT22;70822;51.990;22.766;2023-07-13T00:27:36;20.70;80.00
81366;DHT22;70822;51.990;22.766;2023-07-13T00:42:41;20.50;79.30
81366;DHT22;70822;51.990;22.766;2023-07-13T00:57:46;20.40;78.80
81366;DHT22;70822;51.990;22.766;2023-07-13T01:12:52;20.30;78.30
81366;DHT22;70822;51.990;22.766;2023-07-13T01:27:59;20.20;78.90
81366;DHT22;70822;51.990;22.766;2023-07-13T01:43:04;19.90;78.70
81366;DHT22;70822;51.990;22.766;2023-07-13T01:58:08;19.80;78.10
81366;DHT22;70822;51.990;22.766;2023-07-13T02:13:14;19.60;77.80
81366;DHT22;70822;51.990;22.766;2023-07-13T02:28:18;19.70;77.50
81366;DHT22;70822;51.990;22.766;2023-07-13T02:43:23;19.50;78.40
81366;DHT22;70822;51.990;22.766;2023-07-13T02:58:28;19.60;79.40
81366;DHT22;70822;51.990;22.766;2023-07-13T03:13:34;19.70;80.20
81366;DHT22;70822;51.990;22.766;2023-07-13T03:28:41;19.90;79.90
81366;DHT22;70822;51.990;22.766;2023-07-13T03:43:50;20.00;79.90
81366;DHT22;70822;51.990;22.766;2023-07-13T03:58:57;20.70;79.00
81366;DHT22;70822;51.990;22.766;2023-07-13T04:14:02;21.60;77.60
81366;DHT22;70822;51.990;22.766;2023-07-13T04:29:08;23.40;74.40
81366;DHT22;70822;51.990;22.766;2023-07-13T04:44:13;32.50;57.80
81366;DHT22;70822;51.990;22.766;2023-07-13T04:59:17;40.40;44.90
81366;DHT22;70822;51.990;22.766;2023-07-13T05:14:22;45.50;33.50
81366;DHT22;70822;51.990;22.766;2023-07-13T05:29:27;48.20;27.90
81366;DHT22;70822;51.990;22.766;2023-07-13T05:44:32;49.70;23.10
81366;DHT22;70822;51.990;22.766;2023-07-13T05:59:37;50.00;22.00
81366;DHT22;70822;51.990;22.766;2023-07-13T06:14:42;40.40;27.90
81366;DHT22;70822;51.990;22.766;2023-07-13T06:29:46;33.20;36.70
81366;DHT22;70822;51.990;22.766;2023-07-13T06:44:51;30.40;41.10
81366;DHT22;70822;51.990;22.766;2023-07-13T06:59:56;28.40;44.20
81366;DHT22;70822;51.990;22.766;2023-07-13T07:15:01;27.90;46.50
81366;DHT22;70822;51.990;22.766;2023-07-13T07:30:08;28.60;43.60
81366;DHT22;70822;51.990;22.766;2023-07-13T07:45:16;28.60;42.90
81366;DHT22;70822;51.990;22.766;2023-07-13T08:00:22;28.80;44.50
81366;DHT22;70822;51.990;22.766;2023-07-13T08:15:30;29.40;43.30
81366;DHT22;70822;51.990;22.766;2023-07-13T08:30:36;29.40;41.40
81366;DHT22;70822;51.990;22.766;2023-07-13T08:45:44;29.70;42.20
81366;DHT22;70822;51.990;22.766;2023-07-13T09:00:56;30.00;40.60
81366;DHT22;70822;51.990;22.766;2023-07-13T09:16:04;30.00;38.50
81366;DHT22;70822;51.990;22.766;2023-07-13T09:31:14;30.20;39.70
81366;DHT22;70822;51.990;22.766;2023-07-13T09:46:22;30.60;39.80
81366;DHT22;70822;51.990;22.766;2023-07-13T10:01:36;30.60;39.90
81366;DHT22;70822;51.990;22.766;2023-07-13T10:16:42;30.20;41.40
81366;DHT22;70822;51.990;22.766;2023-07-13T10:31:48;29.40;46.70
81366;DHT22;70822;51.990;22.766;2023-07-13T10:46:55;29.30;47.70
81366;DHT22;70822;51.990;22.766;2023-07-13T11:02:15;29.40;47.90
81366;DHT22;70822;51.990;22.766;2023-07-13T11:17:47;29.80;47.40
81366;DHT22;70822;51.990;22.766;2023-07-13T11:33:03;29.90;45.80
81366;DHT22;70822;51.990;22.766;2023-07-13T11:48:24;29.70;45.00
81366;DHT22;70822;51.990;22.766;2023-07-13T12:03:29;30.00;43.40
81366;DHT22;70822;51.990;22.766;2023-07-13T12:18:34;29.80;42.40
81366;DHT22;70822;51.990;22.766;2023-07-13T12:33:39;29.90;44.00
81366;DHT22;70822;51.990;22.766;2023-07-13T12:48:48;29.70;43.90
81366;DHT22;70822;51.990;22.766;2023-07-13T13:03:55;29.80;43.30
81366;DHT22;70822;51.990;22.766;2023-07-13T13:19:09;29.70;44.00
81366;DHT22;70822;51.990;22.766;2023-07-13T13:34:18;29.30;44.30
81366;DHT22;70822;51.990;22.766;2023-07-13T13:49:24;26.80;49.70
81366;DHT22;70822;51.990;22.766;2023-07-13T14:04:30;25.10;55.30
81366;DHT22;70822;51.990;22.766;2023-07-13T14:19:35;23.90;61.20
81366;DHT22;70822;51.990;22.766;2023-07-13T14:34:40;23.20;62.10
81366;DHT22;70822;51.990;22.766;2023-07-13T14:49:46;22.60;62.90
81366;DHT22;70822;51.990;22.766;2023-07-13T15:04:52;22.40;63.50
81366;DHT22;70822;51.990;22.766;2023-07-13T15:19:57;22.30;63.10
81366;DHT22;70822;51.990;22.766;2023-07-13T15:35:03;22.00;64.30
81366;DHT22;70822;51.990;22.766;2023-07-13T15:50:12;21.30;66.70
81366;DHT22;70822;51.990;22.766;2023-07-13T16:05:18;20.80;69.40
81366;DHT22;70822;51.990;22.766;2023-07-13T16:20:24;20.60;69.20
81366;DHT22;70822;51.990;22.766;2023-07-13T16:35:31;20.00;71.00
81366;DHT22;70822;51.990;22.766;2023-07-13T16:50:41;20.40;72.70
81366;DHT22;70822;51.990;22.766;2023-07-13T17:05:47;20.50;72.20
81366;DHT22;70822;51.990;22.766;2023-07-13T17:20:55;20.50;70.70
81366;DHT22;70822;51.990;22.766;2023-07-13T17:36:02;20.50;71.30
81366;DHT22;70822;51.990;22.766;2023-07-13T17:51:11;21.30;70.70
81366;DHT22;70822;51.990;22.766;2023-07-13T18:06:20;21.00;71.10
81366;DHT22;70822;51.990;22.766;2023-07-13T18:21:29;20.80;73.70
81366;DHT22;70822;51.990;22.766;2023-07-13T18:36:34;20.40;75.60
81366;DHT22;70822;51.990;22.766;2023-07-13T18:51:39;20.20;76.90
81366;DHT22;70822;51.990;22.766;2023-07-13T19:06:43;20.00;77.10
81366;DHT22;70822;51.990;22.766;2023-07-13T19:21:51;19.90;77.50
81366;DHT22;70822;51.990;22.766;2023-07-13T19:37:00;19.70;77.80
81366;DHT22;70822;51.990;22.766;2023-07-13T19:52:09;19.60;78.30
81366;DHT22;70822;51.990;22.766;2023-07-13T20:07:15;19.50;79.00
81366;DHT22;70822;51.990;22.766;2023-07-13T20:22:21;19.60;78.60
81366;DHT22;70822;51.990;22.766;2023-07-13T20:37:31;19.50;78.70
81366;DHT22;70822;51.990;22.766;2023-07-13T20:52:36;19.40;78.60
81366;DHT22;70822;51.990;22.766;2023-07-13T21:07:41;19.50;78.60
81366;DHT22;70822;51.990;22.766;2023-07-13T21:22:48;19.40;79.60
81366;DHT22;70822;51.990;22.766;2023-07-13T21:37:53;19.20;80.00
81366;DHT22;70822;51.990;22.766;2023-07-13T21:52:59;19.20;80.20
81366;DHT22;70822;51.990;22.766;2023-07-13T22:08:09;19.20;80.10
81366;DHT22;70822;51.990;22.766;2023-07-13T22:23:21;19.20;79.90
81366;DHT22;70822;51.990;22.766;2023-07-13T22:38:27;19.10;79.80
81366;DHT22;70822;51.990;22.766;2023-07-13T22:53:34;19.10;79.20
81366;DHT22;70822;51.990;22.766;2023-07-13T23:09:04;18.90;79.20
81366;DHT22;70822;51.990;22.766;2023-07-13T23:24:13;19.00;78.90
81366;DHT22;70822;51.990;22.766;2023-07-13T23:39:18;19.00;78.60
81366;DHT22;70822;51.990;22.766;2023-07-13T23:54:25;18.90;78.30
